Time;durP1;ratioP1;P1;durP2;ratioP2;P2;SDS_P1;SDS_P2;PMS_P1;PMS_P2;Temp;Humidity;BMP_temperature;BMP_pressure;BME280_temperature;BME280_humidity;BME280_pressure;Samples;Min_cycle;Max_cycle;Signal;HPM_P1;HPM_P2
2023/06/28 00:01:06;;;;;;;17.95;7.82;;;;;;;26.26;41.21;101999.69;5039047;28;20129;-31
2023/06/28 00:03:32;;;;;;;13.95;7.15;;;;;;;26.26;41.35;102003.25;5038101;28;20362;-31
2023/06/28 00:05:59;;;;;;;11.68;7.10;;;;;;;26.26;41.33;101994.25;5038769;28;20059;-31
2023/06/28 00:08:26;;;;;;;12.75;7.95;;;;;;;26.24;41.35;101994.41;5040421;28;20502;-31
2023/06/28 00:10:53;;;;;;;11.82;7.55;;;;;;;26.24;41.35;101990.88;5037835;28;20102;-31
2023/06/28 00:13:19;;;;;;;11.45;7.50;;;;;;;26.24;41.36;101991.69;5036878;28;20052;-31
2023/06/28 00:15:46;;;;;;;11.25;7.25;;;;;;;26.23;41.16;101981.03;5039030;28;20053;-30
2023/06/28 00:18:12;;;;;;;13.43;7.90;;;;;;;26.23;40.93;101979.16;5042752;28;20076;-30
2023/06/28 00:20:40;;;;;;;12.52;7.20;;;;;;;26.22;41.16;101984.78;5046358;28;20144;-31
2023/06/28 00:23:08;;;;;;;9.88;7.05;;;;;;;26.22;41.21;101982.91;5042460;28;20591;-31
2023/06/28 00:25:35;;;;;;;12.73;7.38;;;;;;;26.21;41.21;101985.78;5069890;28;20069;-31
2023/06/28 00:28:03;;;;;;;13.23;8.38;;;;;;;26.22;41.24;101977.47;5047703;28;20064;-31
2023/06/28 00:30:31;;;;;;;11.57;7.15;;;;;;;26.21;41.47;101977.63;5039409;28;20053;-31
2023/06/28 00:32:58;;;;;;;12.98;8.05;;;;;;;26.20;41.11;101987.66;5035506;28;20377;-31
2023/06/28 00:35:25;;;;;;;12.00;7.53;;;;;;;26.19;41.35;101977.81;5037683;28;20053;-30
2023/06/28 00:37:51;;;;;;;11.68;7.43;;;;;;;26.19;41.47;101980.53;5036928;28;20072;-32
2023/06/28 00:40:18;;;;;;;14.23;7.57;;;;;;;26.19;41.38;101982.41;5039550;28;20073;-31
2023/06/28 00:42:44;;;;;;;12.00;6.68;;;;;;;26.18;41.44;101987.00;5038219;28;20065;-31
2023/06/28 00:45:13;;;;;;;12.10;7.45;;;;;;;26.18;41.40;101983.44;5038052;28;20152;-31
2023/06/28 00:47:41;;;;;;;11.25;6.95;;;;;;;26.18;41.40;101981.56;5036359;28;20095;-31
2023/06/28 00:50:08;;;;;;;12.65;7.40;;;;;;;26.17;41.17;101981.72;5037827;28;20049;-31
2023/06/28 00:52:35;;;;;;;11.07;6.78;;;;;;;26.16;41.39;101978.16;5038428;28;20149;-31
2023/06/28 00:55:03;;;;;;;13.23;7.78;;;;;;;26.16;41.38;101985.47;5036887;28;20049;-31
2023/06/28 00:57:30;;;;;;;13.43;7.18;;;;;;;26.16;41.36;101982.75;5037395;28;20068;-31
2023/06/28 00:59:58;;;;;;;11.52;7.25;;;;;;;26.16;41.55;101985.47;5041310;28;20073;-31
2023/06/28 01:02:25;;;;;;;11.77;7.00;;;;;;;26.16;41.28;101977.31;5036074;28;20146;-31
2023/06/28 01:04:57;;;;;;;11.30;7.18;;;;;;;26.15;41.29;101973.78;5034190;28;20053;-30
2023/06/28 01:07:28;;;;;;;12.50;7.18;;;;;;;26.14;41.51;101974.81;5026173;28;20179;-31
2023/06/28 01:09:56;;;;;;;11.23;6.65;;;;;;;26.14;41.30;101976.69;5036716;28;20076;-31
2023/06/28 01:12:25;;;;;;;10.07;6.57;;;;;;;26.13;41.45;101978.56;5041593;28;20092;-32
2023/06/28 01:14:51;;;;;;;11.68;6.60;;;;;;;26.13;41.41;101977.69;5040822;28;20046;-31
2023/06/28 01:17:19;;;;;;;10.77;6.28;;;;;;;26.14;41.54;101979.41;5038467;28;20096;-32
2023/06/28 01:19:46;;;;;;;12.50;6.82;;;;;;;26.12;41.47;101976.00;5036079;28;20094;-31
2023/06/28 01:22:13;;;;;;;10.60;6.75;;;;;;;26.12;41.54;101978.72;5035714;28;20474;-32
2023/06/28 01:24:41;;;;;;;8.68;5.50;;;;;;;26.12;41.43;101973.28;5034453;28;20049;-31
2023/06/28 01:27:13;;;;;;;10.45;6.78;;;;;;;26.10;41.30;101976.19;5036449;28;20229;-31
2023/06/28 01:29:40;;;;;;;9.90;6.35;;;;;;;26.11;41.63;101974.31;5034846;28;20053;-31
2023/06/28 01:32:07;;;;;;;10.30;6.38;;;;;;;26.08;41.62;101968.19;5037017;28;20076;-31
2023/06/28 01:34:34;;;;;;;9.35;6.25;;;;;;;26.09;41.45;101978.06;5041987;28;20045;-30
2023/06/28 01:37:02;;;;;;;10.73;6.43;;;;;;;26.08;41.36;101979.06;5042972;28;20380;-32
2023/06/28 01:39:32;;;;;;;10.13;6.85;;;;;;;26.08;41.73;101970.91;5035320;28;20140;-31
2023/06/28 01:42:00;;;;;;;9.05;6.18;;;;;;;26.08;41.64;101972.78;5036518;28;20061;-31
2023/06/28 01:44:29;;;;;;;8.50;6.10;;;;;;;26.08;41.61;101973.63;5051808;28;20132;-31
2023/06/28 01:46:56;;;;;;;8.98;6.15;;;;;;;26.07;41.73;101974.66;5037459;28;20379;-31
2023/06/28 01:49:25;;;;;;;9.50;6.05;;;;;;;26.06;41.70;101978.41;5039522;28;20081;-31
2023/06/28 01:51:53;;;;;;;9.57;6.30;;;;;;;26.05;41.72;101971.31;5044953;28;20087;-31
2023/06/28 01:54:20;;;;;;;10.68;6.15;;;;;;;26.05;41.70;101974.03;5040405;28;20099;-31
2023/06/28 01:56:47;;;;;;;10.05;5.75;;;;;;;26.05;41.86;101971.31;5039971;28;20434;-32
2023/06/28 01:59:14;;;;;;;10.20;6.25;;;;;;;26.04;41.88;101972.31;5043346;28;20132;-30
2023/06/28 02:01:43;;;;;;;8.15;5.88;;;;;;;26.04;42.00;101969.59;5035439;28;20115;-31
2023/06/28 02:04:10;;;;;;;9.80;6.00;;;;;;;26.04;41.80;101963.31;5044688;28;20647;-30
2023/06/28 02:06:40;;;;;;;10.18;5.65;;;;;;;26.04;41.97;101971.47;5046388;28;20072;-31
2023/06/28 02:09:07;;;;;;;8.38;5.82;;;;;;;26.03;41.95;101958.91;5040976;28;20063;-32
2023/06/28 02:11:34;;;;;;;8.77;5.43;;;;;;;26.02;41.88;101960.78;5043507;28;20049;-33
2023/06/28 02:14:00;;;;;;;9.15;5.43;;;;;;;26.02;41.99;101962.66;5042644;28;20110;-32
2023/06/28 02:16:27;;;;;;;8.73;5.03;;;;;;;26.02;41.82;101955.34;5040444;28;20086;-30
2023/06/28 02:18:57;;;;;;;9.57;5.53;;;;;;;26.01;41.87;101959.09;5039333;28;20052;-30
2023/06/28 02:21:24;;;;;;;8.60;5.03;;;;;;;26.00;42.11;101961.97;5034452;28;20052;-32
2023/06/28 02:23:50;;;;;;;8.20;5.20;;;;;;;26.00;41.90;101954.66;5036799;28;20064;-31
2023/06/28 02:26:17;;;;;;;7.78;5.18;;;;;;;25.99;41.94;101957.56;5037652;28;20081;-31
2023/06/28 02:28:44;;;;;;;7.93;5.22;;;;;;;25.99;41.90;101952.16;5041411;28;20056;-31
2023/06/28 02:31:10;;;;;;;8.15;5.13;;;;;;;25.99;42.15;101946.72;5040559;28;20134;-31
2023/06/28 02:33:37;;;;;;;8.38;4.55;;;;;;;25.98;41.89;101950.47;5037533;28;20106;-31
2023/06/28 02:36:04;;;;;;;8.00;4.50;;;;;;;25.97;42.02;101943.31;5041359;28;20378;-31
2023/06/28 02:38:30;;;;;;;6.80;4.30;;;;;;;25.96;42.06;101942.47;5042658;28;20095;-30
2023/06/28 02:40:57;;;;;;;7.15;4.53;;;;;;;25.96;42.25;101953.34;5033679;28;20045;-31
2023/06/28 02:43:23;;;;;;;7.43;4.47;;;;;;;25.94;42.09;101949.97;5037054;28;20075;-32
2023/06/28 02:45:50;;;;;;;7.35;4.88;;;;;;;25.95;42.03;101950.81;5034804;28;20155;-30
2023/06/28 02:48:17;;;;;;;7.15;4.55;;;;;;;25.93;42.19;101945.56;5032919;28;20392;-30
2023/06/28 02:50:43;;;;;;;6.25;4.20;;;;;;;25.94;42.32;101940.97;5036049;28;20076;-30
2023/06/28 02:53:10;;;;;;;7.80;4.25;;;;;;;25.93;42.46;101944.69;5034770;28;20053;-30
2023/06/28 02:55:37;;;;;;;8.48;4.90;;;;;;;25.93;42.05;101940.13;5035513;28;20041;-31
2023/06/28 02:58:03;;;;;;;6.95;4.47;;;;;;;25.91;42.01;101944.88;5033872;28;20137;-30
2023/06/28 03:00:30;;;;;;;6.72;4.43;;;;;;;25.90;42.01;101948.63;5038857;28;20491;-31
2023/06/28 03:02:57;;;;;;;6.65;4.18;;;;;;;25.90;42.08;101936.94;5034325;28;20053;-31
2023/06/28 03:05:23;;;;;;;7.25;4.10;;;;;;;25.90;42.37;101939.66;5035894;28;20076;-29
2023/06/28 03:07:50;;;;;;;5.55;3.90;;;;;;;25.89;42.25;101944.25;5034514;28;20211;-31
2023/06/28 03:10:17;;;;;;;7.32;4.20;;;;;;;25.87;42.19;101938.13;5034246;28;20140;-31
2023/06/28 03:12:43;;;;;;;8.52;4.10;;;;;;;25.86;42.20;101944.59;5035727;28;20080;-30
2023/06/28 03:15:10;;;;;;;7.63;4.00;;;;;;;25.86;42.40;101935.59;5036301;28;20102;-30
2023/06/28 03:17:36;;;;;;;5.53;3.40;;;;;;;25.86;42.11;101941.88;5038012;28;20045;-30
2023/06/28 03:20:04;;;;;;;6.95;3.75;;;;;;;25.84;42.13;101944.75;5039358;28;20052;-30
2023/06/28 03:22:30;;;;;;;6.57;3.97;;;;;;;25.84;42.16;101936.59;5040153;28;20084;-30
2023/06/28 03:24:57;;;;;;;10.45;3.97;;;;;;;25.83;42.18;101932.19;5038284;28;20076;-30
2023/06/28 03:27:24;;;;;;;7.15;3.80;;;;;;;25.83;42.24;101934.06;5038315;28;20541;-31
2023/06/28 03:29:51;;;;;;;6.65;3.55;;;;;;;25.82;42.51;101927.81;5054327;28;20049;-30
2023/06/28 03:32:17;;;;;;;5.53;3.60;;;;;;;25.81;42.39;101930.72;5038309;28;20073;-31
2023/06/28 03:34:44;;;;;;;5.00;3.15;;;;;;;25.81;42.44;101934.25;5044959;28;20520;-30
2023/06/28 03:37:15;;;;;;;5.07;3.35;;;;;;;25.80;42.58;101932.56;5039648;28;20140;-31
2023/06/28 03:39:42;;;;;;;5.65;3.28;;;;;;;25.80;42.56;101927.13;5040544;28;20345;-31
2023/06/28 03:42:08;;;;;;;5.10;3.20;;;;;;;25.79;42.65;101916.44;5041329;28;20136;-31
2023/06/28 03:44:35;;;;;;;5.63;3.17;;;;;;;25.79;42.41;101922.72;5040199;28;20048;-31
2023/06/28 03:47:02;;;;;;;5.85;3.45;;;;;;;25.78;42.43;101918.31;5037499;28;20076;-31
2023/06/28 03:49:28;;;;;;;4.38;2.83;;;;;;;25.78;42.57;101921.03;5041293;28;20139;-32
2023/06/28 03:51:55;;;;;;;5.32;2.95;;;;;;;25.78;42.62;101921.03;5038920;28;20132;-34
2023/06/28 03:54:21;;;;;;;4.60;3.20;;;;;;;25.78;42.52;101922.91;5038220;28;20098;-30
2023/06/28 03:56:49;;;;;;;5.80;2.95;;;;;;;25.78;42.54;101917.47;5039033;28;22681;-31
2023/06/28 03:59:15;;;;;;;5.00;2.75;;;;;;;25.77;42.80;101913.91;5040466;28;20076;-31
2023/06/28 04:01:42;;;;;;;3.83;2.67;;;;;;;25.77;42.67;101913.91;5034903;28;20080;-31
2023/06/28 04:04:11;;;;;;;5.07;3.08;;;;;;;25.77;43.00;101910.28;5039754;28;20527;-31
2023/06/28 04:06:38;;;;;;;7.53;2.88;;;;;;;25.76;42.82;101914.03;5038700;28;20077;-30
2023/06/28 04:09:05;;;;;;;6.15;3.38;;;;;;;25.74;42.79;101911.53;5036888;28;20442;-30
2023/06/28 04:11:31;;;;;;;4.75;2.70;;;;;;;25.74;42.96;101907.97;5034758;28;20340;-30
2023/06/28 04:13:58;;;;;;;5.22;2.95;;;;;;;25.73;42.52;101907.13;5033737;28;20404;-32
2023/06/28 04:16:25;;;;;;;5.88;2.53;;;;;;;25.73;42.62;101912.56;5035058;28;20045;-32
2023/06/28 04:18:54;;;;;;;4.20;2.80;;;;;;;25.73;42.74;101915.28;5036104;28;20049;-32
2023/06/28 04:21:21;;;;;;;4.45;3.05;;;;;;;25.73;42.71;101908.97;5034380;28;20119;-33
2023/06/28 04:23:47;;;;;;;4.28;2.85;;;;;;;25.72;42.64;101912.72;5035078;28;20053;-32
2023/06/28 04:26:14;;;;;;;3.90;2.47;;;;;;;25.71;42.73;101905.59;5030749;28;20433;-31
2023/06/28 04:28:41;;;;;;;4.10;2.17;;;;;;;25.71;42.72;101909.16;5031751;28;20402;-30
2023/06/28 04:31:07;;;;;;;4.43;2.70;;;;;;;25.71;42.51;101911.03;5035289;28;20440;-31
2023/06/28 04:33:35;;;;;;;4.30;2.42;;;;;;;25.71;42.98;101911.03;5030865;28;20132;-32
2023/06/28 04:36:02;;;;;;;3.47;2.13;;;;;;;25.71;43.10;101911.88;5036273;28;20057;-30
2023/06/28 04:38:32;;;;;;;4.93;2.53;;;;;;;25.70;43.25;101906.63;5036629;28;20049;-31
2023/06/28 04:40:59;;;;;;;6.25;2.63;;;;;;;25.70;42.98;101912.06;5041554;28;20139;-30
2023/06/28 04:43:26;;;;;;;2.72;1.80;;;;;;;25.70;42.83;101915.63;5037875;28;20075;-30
2023/06/28 04:45:55;;;;;;;5.80;2.50;;;;;;;25.69;42.98;101907.63;5042472;28;20140;-31
2023/06/28 04:48:22;;;;;;;4.03;2.35;;;;;;;25.70;42.74;101914.78;5043291;28;20076;-32
2023/06/28 04:50:51;;;;;;;3.72;2.20;;;;;;;25.69;43.26;101904.91;5042677;28;20058;-30
2023/06/28 04:53:18;;;;;;;3.80;2.00;;;;;;;25.69;42.96;101913.06;5037933;28;20045;-31
2023/06/28 04:55:47;;;;;;;5.32;1.98;;;;;;;25.70;43.13;101912.06;5040023;28;20040;-32
2023/06/28 04:58:14;;;;;;;3.63;2.10;;;;;;;25.69;43.20;101902.19;5041276;28;20081;-32
2023/06/28 05:00:41;;;;;;;3.90;2.13;;;;;;;25.67;42.90;101907.81;5038732;28;20122;-32
2023/06/28 05:03:10;;;;;;;4.40;2.42;;;;;;;25.67;42.99;101907.81;5036468;28;20139;-33
2023/06/28 05:05:37;;;;;;;4.63;2.17;;;;;;;25.67;42.95;101910.53;5037618;28;20056;-32
2023/06/28 05:08:04;;;;;;;2.83;1.88;;;;;;;25.67;43.04;101901.56;5038874;28;20416;-32
2023/06/28 05:10:31;;;;;;;4.00;2.10;;;;;;;25.66;43.16;101900.72;5035095;28;20452;-33
2023/06/28 05:12:57;;;;;;;4.13;1.90;;;;;;;25.67;43.29;101901.56;5036292;28;20057;-32
2023/06/28 05:15:24;;;;;;;4.45;1.90;;;;;;;25.67;43.17;101901.56;5030044;28;20048;-32
2023/06/28 05:17:51;;;;;;;6.30;2.60;;;;;;;25.66;43.12;101900.72;5031864;28;20110;-33
2023/06/28 05:20:18;;;;;;;4.47;1.90;;;;;;;25.66;43.30;101900.72;5029775;28;20053;-32
2023/06/28 05:22:48;;;;;;;3.85;1.70;;;;;;;25.66;43.24;101897.16;5030707;28;20203;-32
2023/06/28 05:25:18;;;;;;;3.90;1.98;;;;;;;25.64;43.49;101902.75;5032050;28;20053;-32
2023/06/28 05:27:44;;;;;;;4.70;1.92;;;;;;;25.65;43.45;101896.31;5028432;28;20048;-33
2023/06/28 05:30:11;;;;;;;4.45;2.03;;;;;;;25.65;43.39;101899.03;5030155;28;20072;-32
2023/06/28 05:32:38;;;;;;;4.45;1.95;;;;;;;25.65;43.24;101892.72;5030998;28;21896;-32
2023/06/28 05:35:05;;;;;;;5.35;1.90;;;;;;;25.65;43.36;101895.44;5030232;28;20140;-33
2023/06/28 05:37:32;;;;;;;2.40;1.38;;;;;;;25.64;43.31;101891.88;5030718;28;20045;-31
2023/06/28 05:39:58;;;;;;;4.40;1.77;;;;;;;25.65;43.45;101895.44;5039001;28;20048;-31
2023/06/28 05:42:25;;;;;;;3.33;2.00;;;;;;;25.65;43.55;101896.31;5038823;28;20088;-31
2023/06/28 05:44:52;;;;;;;3.95;1.92;;;;;;;25.65;43.79;101895.44;5037533;28;20085;-31
2023/06/28 05:47:19;;;;;;;5.38;1.88;;;;;;;25.65;43.75;101898.16;5029524;28;20073;-31
2023/06/28 05:49:46;;;;;;;3.55;1.77;;;;;;;25.65;43.77;101893.59;5031729;28;20418;-31
2023/06/28 05:52:12;;;;;;;4.47;2.13;;;;;;;25.64;43.72;101896.47;5031156;28;20397;-32
2023/06/28 05:54:39;;;;;;;4.03;2.03;;;;;;;25.64;43.60;101891.03;5029304;28;20087;-32
2023/06/28 05:57:06;;;;;;;3.70;2.28;;;;;;;25.64;43.59;101891.03;5035774;28;20435;-31
2023/06/28 05:59:32;;;;;;;4.07;1.90;;;;;;;25.64;43.48;101891.03;5029497;28;20053;-31
2023/06/28 06:01:59;;;;;;;2.88;1.75;;;;;;;25.63;43.52;101892.91;5028478;28;20134;-31
2023/06/28 06:04:26;;;;;;;3.55;1.98;;;;;;;25.63;43.33;101892.06;5037193;28;20045;-31
2023/06/28 06:06:52;;;;;;;5.18;2.25;;;;;;;25.62;43.50;101893.09;5035642;28;20422;-31
2023/06/28 06:09:19;;;;;;;3.25;1.77;;;;;;;25.63;43.89;101886.66;5029500;28;20052;-31
2023/06/28 06:11:46;;;;;;;3.97;1.95;;;;;;;25.62;43.62;101884.97;5032119;28;20821;-31
2023/06/28 06:14:13;;;;;;;3.15;1.58;;;;;;;25.60;43.50;101888.69;5029036;28;20714;-32
2023/06/28 06:16:39;;;;;;;4.07;1.80;;;;;;;25.59;43.64;101894.28;5029775;28;20045;-32
2023/06/28 06:19:06;;;;;;;6.35;2.10;;;;;;;25.59;43.97;101889.72;5028575;28;20460;-32
2023/06/28 06:21:32;;;;;;;4.53;2.15;;;;;;;25.58;43.63;101888.03;5030363;28;20057;-31
2023/06/28 06:23:59;;;;;;;3.70;2.40;;;;;;;25.57;43.79;101889.06;5031497;28;20060;-31
2023/06/28 06:26:27;;;;;;;5.90;2.60;;;;;;;25.59;44.16;101886.16;5037613;28;20043;-31
2023/06/28 06:28:54;;;;;;;5.40;2.40;;;;;;;25.58;43.94;101885.31;5038302;28;20049;-32
2023/06/28 06:31:20;;;;;;;5.68;2.60;;;;;;;25.58;43.48;101885.31;5032225;28;20148;-31
2023/06/28 06:33:47;;;;;;;6.85;2.97;;;;;;;25.58;43.72;101881.75;5036315;28;20041;-31
2023/06/28 06:36:14;;;;;;;5.13;2.40;;;;;;;25.59;43.48;101886.16;5040159;28;20045;-32
2023/06/28 06:38:41;;;;;;;5.22;3.00;;;;;;;25.58;43.87;101888.03;5034616;28;20137;-31
2023/06/28 06:41:07;;;;;;;7.00;3.22;;;;;;;25.59;43.83;101891.59;5039535;28;20063;-33
2023/06/28 06:43:34;;;;;;;5.00;3.15;;;;;;;25.59;43.70;101888.88;5037956;28;20048;-34
2023/06/28 06:46:01;;;;;;;5.43;3.20;;;;;;;25.58;43.77;101888.03;5039930;28;20056;-32
2023/06/28 06:48:27;;;;;;;6.00;3.35;;;;;;;25.58;44.17;101888.03;5036500;28;20048;-31
2023/06/28 06:50:54;;;;;;;6.50;4.30;;;;;;;25.59;43.58;101886.16;5038152;28;20045;-31
2023/06/28 06:53:20;;;;;;;11.63;7.10;;;;;;;25.59;43.92;101891.59;5039590;28;20297;-31
2023/06/28 06:55:47;;;;;;;18.10;10.30;;;;;;;25.58;43.62;101898.03;5038974;28;20081;-32
2023/06/28 06:58:14;;;;;;;22.90;12.85;;;;;;;25.58;43.76;101892.63;5039234;28;20055;-32
2023/06/28 07:00:40;;;;;;;22.98;13.60;;;;;;;25.57;43.94;101891.78;5041766;28;20355;-31
2023/06/28 07:03:07;;;;;;;21.27;12.73;;;;;;;25.57;44.47;101897.19;5035532;28;20073;-31
2023/06/28 07:05:34;;;;;;;23.13;12.85;;;;;;;25.56;44.60;101892.78;5042425;28;20048;-31
2023/06/28 07:08:01;;;;;;;21.55;11.35;;;;;;;25.56;44.71;101898.19;5040321;28;20048;-31
2023/06/28 07:10:27;;;;;;;18.65;9.68;;;;;;;25.58;44.94;101893.44;5066486;28;20057;-31
2023/06/28 07:12:54;;;;;;;18.13;8.55;;;;;;;25.57;45.37;101896.34;5036356;28;20448;-31
2023/06/28 07:15:21;;;;;;;20.08;8.60;;;;;;;25.56;45.38;101900.06;5032490;28;20111;-33
2023/06/28 07:17:47;;;;;;;12.20;6.68;;;;;;;25.54;45.51;101902.13;5037491;28;20037;-31
2023/06/28 07:20:14;;;;;;;10.95;5.47;;;;;;;25.52;46.01;101890.59;5034401;28;20377;-31
2023/06/28 07:22:41;;;;;;;12.55;5.50;;;;;;;25.51;46.29;101903.31;5033093;28;20209;-33
2023/06/28 07:25:07;;;;;;;13.10;5.30;;;;;;;25.50;46.20;101890.78;5028923;28;20054;-31
2023/06/28 07:27:34;;;;;;;12.98;4.82;;;;;;;25.50;46.15;101900.81;5035435;28;20045;-30
2023/06/28 07:30:01;;;;;;;9.05;3.78;;;;;;;25.48;46.52;101898.25;5036044;28;20048;-31
2023/06/28 07:32:28;;;;;;;13.60;4.53;;;;;;;25.46;46.75;101900.31;5040565;28;20052;-30
2023/06/28 07:34:54;;;;;;;10.35;3.40;;;;;;;25.45;46.67;101897.75;5039802;28;20057;-31
2023/06/28 07:37:22;;;;;;;9.20;3.95;;;;;;;25.43;46.47;101903.38;5036322;28;20045;-30
2023/06/28 07:39:49;;;;;;;9.38;4.40;;;;;;;25.41;46.75;101907.28;5035532;28;20433;-31
2023/06/28 07:42:15;;;;;;;12.18;3.47;;;;;;;25.39;46.74;101906.63;5033461;28;20111;-31
2023/06/28 07:44:43;;;;;;;7.35;3.42;;;;;;;25.36;46.79;101916.78;5031594;28;20433;-31
2023/06/28 07:47:10;;;;;;;8.95;3.70;;;;;;;25.36;46.73;101905.94;5025444;28;20047;-30
2023/06/28 07:49:36;;;;;;;9.43;3.33;;;;;;;25.38;46.89;101911.22;5029414;28;20053;-32
2023/06/28 07:52:04;;;;;;;8.25;3.90;;;;;;;25.36;47.14;101908.66;5024700;28;20064;-33
2023/06/28 07:54:30;;;;;;;12.23;4.55;;;;;;;25.36;46.98;101916.78;5025818;28;20437;-32
2023/06/28 07:57:00;;;;;;;13.68;6.28;;;;;;;25.34;46.96;101910.72;5029018;28;20154;-31
2023/06/28 07:59:28;;;;;;;13.27;7.45;;;;;;;25.36;47.43;101914.06;5029187;28;20528;-31
2023/06/28 08:01:54;;;;;;;17.00;7.55;;;;;;;25.35;47.01;101903.41;5037141;28;20049;-31
2023/06/28 08:04:22;;;;;;;14.82;7.70;;;;;;;25.37;46.87;101895.94;5036908;28;20085;-31
2023/06/28 08:06:49;;;;;;;14.18;6.93;;;;;;;25.39;47.02;101903.91;5035057;28;20077;-31
2023/06/28 08:09:16;;;;;;;13.57;7.20;;;;;;;25.39;46.53;101899.31;5029382;28;20064;-31
2023/06/28 08:11:42;;;;;;;14.98;7.40;;;;;;;25.42;46.95;101898.13;5030571;28;20071;-31
2023/06/28 08:14:09;;;;;;;14.70;6.28;;;;;;;25.42;46.82;101893.53;5036705;28;20058;-31
2023/06/28 08:16:36;;;;;;;13.07;5.78;;;;;;;25.43;46.61;101897.09;5033965;28;20037;-31
2023/06/28 08:19:02;;;;;;;9.80;5.30;;;;;;;25.44;46.51;101902.34;5034957;28;20106;-31
2023/06/28 08:21:29;;;;;;;13.25;5.97;;;;;;;25.44;46.48;101894.19;5035536;28;20053;-31
2023/06/28 08:23:55;;;;;;;11.23;5.20;;;;;;;25.44;46.50;101905.06;5030188;28;20053;-31
2023/06/28 08:26:22;;;;;;;10.05;4.32;;;;;;;25.43;46.54;101905.25;5030829;28;20055;-31
2023/06/28 08:28:49;;;;;;;9.23;4.45;;;;;;;25.43;46.77;101910.66;5031229;28;20084;-30
2023/06/28 08:31:26;;;;;;;8.27;3.70;;;;;;;25.43;46.56;101908.78;5031847;28;20053;-31
2023/06/28 08:33:53;;;;;;;9.90;4.70;;;;;;;25.43;46.94;101910.66;5038873;28;20107;-31
2023/06/28 08:36:19;;;;;;;7.78;3.95;;;;;;;25.40;46.87;101911.84;5041512;28;20054;-30
2023/06/28 08:38:46;;;;;;;9.18;3.90;;;;;;;25.40;46.78;101909.16;5041858;28;20075;-30
2023/06/28 08:41:13;;;;;;;10.05;3.70;;;;;;;25.42;46.41;101917.97;5041938;28;20137;-30
2023/06/28 08:43:46;;;;;;;11.43;4.05;;;;;;;25.44;46.53;101907.78;5038276;28;20056;-31
2023/06/28 08:46:13;;;;;;;10.10;4.88;;;;;;;25.41;46.68;101913.56;5043907;28;20049;-31
2023/06/28 08:48:40;;;;;;;8.23;3.60;;;;;;;25.41;46.40;101908.16;5039754;28;20085;-31
2023/06/28 08:51:07;;;;;;;8.90;3.72;;;;;;;25.41;46.90;101916.28;5039738;28;20056;-30
2023/06/28 08:53:35;;;;;;;8.15;3.30;;;;;;;25.44;46.32;101915.91;5040985;28;20053;-30
2023/06/28 08:56:01;;;;;;;6.28;3.35;;;;;;;25.44;46.94;101907.78;5032973;28;20358;-30
2023/06/28 08:58:29;;;;;;;9.07;3.20;;;;;;;25.44;46.90;101913.19;5039083;28;20060;-30
2023/06/28 09:00:59;;;;;;;8.95;3.13;;;;;;;25.44;46.90;101912.34;5039840;28;20139;-31
2023/06/28 09:03:25;;;;;;;5.65;3.33;;;;;;;25.45;46.82;101911.31;5038227;28;20049;-30
2023/06/28 09:05:53;;;;;;;7.95;3.55;;;;;;;25.45;46.38;101909.47;5037901;28;20064;-30
2023/06/28 09:08:20;;;;;;;8.15;3.50;;;;;;;25.47;46.27;101904.69;5041062;28;20342;-30
2023/06/28 09:10:48;;;;;;;15.40;3.95;;;;;;;25.48;46.69;101898.25;5039414;28;20045;-31
2023/06/28 09:13:19;;;;;;;14.98;4.28;;;;;;;25.48;47.95;101908.25;5040161;28;20060;-31
2023/06/28 09:15:46;;;;;;;18.77;4.35;;;;;;;25.50;48.78;101903.53;5040161;28;20379;-30
2023/06/28 09:18:13;;;;;;;14.73;4.30;;;;;;;25.52;49.17;101901.44;5044311;28;20119;-30
2023/06/28 09:20:53;;;;;;;17.60;5.03;;;;;;;25.53;49.82;101903.16;5040500;28;20044;-31
2023/06/28 09:23:31;;;;;;;32.22;9.23;;;;;;;25.55;50.44;101901.94;5036799;28;20152;-30
2023/06/28 09:25:57;;;;;;;43.83;11.30;;;;;;;25.59;50.26;101899.72;5042430;28;20149;-31
2023/06/28 09:28:34;;;;;;;32.38;9.45;;;;;;;25.60;50.29;101891.38;5038743;28;20106;-30
2023/06/28 09:31:04;;;;;;;26.33;10.52;;;;;;;25.64;49.93;101899.19;5031981;28;20049;-30
2023/06/28 09:33:32;;;;;;;39.80;16.77;;;;;;;25.66;50.16;101891.72;5031271;28;20056;-30
2023/06/28 09:36:02;;;;;;;30.95;13.02;;;;;;;25.65;50.55;101888.16;5036122;28;20084;-31
2023/06/28 09:38:28;;;;;;;32.10;15.57;;;;;;;25.66;50.19;101891.72;5039423;28;20506;-30
2023/06/28 09:40:56;;;;;;;36.75;14.40;;;;;;;25.67;50.40;101885.25;5034570;28;20795;-31
2023/06/28 09:43:23;;;;;;;43.65;18.60;;;;;;;25.67;50.35;101882.53;5036642;28;20049;-30
2023/06/28 09:45:54;;;;;;;34.03;17.42;;;;;;;25.68;49.98;101879.63;5033896;28;20062;-30
2023/06/28 09:48:25;;;;;;;35.03;16.88;;;;;;;25.69;50.25;101886.78;5034763;28;20424;-31
2023/06/28 09:50:52;;;;;;;29.45;12.32;;;;;;;25.69;50.35;101892.22;5037024;28;20232;-31
2023/06/28 09:53:21;;;;;;;21.85;10.68;;;;;;;25.64;50.31;101882.91;5039128;28;20391;-31
2023/06/28 09:55:49;;;;;;;28.27;10.98;;;;;;;25.60;50.51;101887.84;5037536;28;20070;-31
2023/06/28 09:58:18;;;;;;;21.63;9.52;;;;;;;25.57;50.70;101886.34;5038493;28;20045;-31
2023/06/28 10:00:49;;;;;;;23.85;10.93;;;;;;;25.56;50.35;101883.78;5038211;28;20128;-30
2023/06/28 10:03:17;;;;;;;17.73;9.38;;;;;;;25.55;50.57;101885.66;5036633;28;20053;-31
2023/06/28 10:05:47;;;;;;;21.13;9.43;;;;;;;25.56;50.46;101889.22;5040676;28;20091;-30
2023/06/28 10:08:16;;;;;;;16.50;9.27;;;;;;;25.56;50.72;101887.34;5042230;28;20049;-31
2023/06/28 10:10:44;;;;;;;20.52;8.68;;;;;;;25.58;50.48;101887.19;5049349;28;20056;-30
2023/06/28 10:13:16;;;;;;;16.30;8.65;;;;;;;25.57;50.85;101889.06;5047584;28;20139;-31
2023/06/28 10:15:49;;;;;;;21.38;9.88;;;;;;;25.56;50.49;101887.34;5043906;28;20057;-31
2023/06/28 10:18:16;;;;;;;;;;;;;;;25.52;50.76;101886.00;5039754;28;20432;-31
2023/06/28 10:20:43;;;;;;;19.55;8.65;;;;;;;25.55;50.37;101884.81;5046479;28;19974;-31
2023/06/28 10:23:13;;;;;;;19.27;8.35;;;;;;;25.53;50.73;101882.28;5038163;28;20072;-31
2023/06/28 10:25:41;;;;;;;17.75;7.93;;;;;;;25.53;50.72;101890.44;5044609;28;20052;-32
2023/06/28 10:28:09;;;;;;;14.25;7.93;;;;;;;25.53;50.35;101890.44;5045549;28;20444;-31
2023/06/28 10:30:38;;;;;;;16.88;8.65;;;;;;;25.52;50.93;101883.28;5046361;28;20129;-31
2023/06/28 10:33:05;;;;;;;16.55;7.68;;;;;;;25.52;50.30;101877.88;5037609;28;20060;-31
2023/06/28 10:35:32;;;;;;;17.25;8.05;;;;;;;25.51;50.40;101883.47;5040944;28;20060;-31
2023/06/28 10:37:59;;;;;;;22.00;7.97;;;;;;;25.49;50.63;101877.41;5042433;28;20045;-32
2023/06/28 10:40:26;;;;;;;16.05;8.25;;;;;;;25.48;50.69;101873.81;5069717;28;20049;-31
2023/06/28 10:42:53;;;;;;;15.98;8.57;;;;;;;25.48;51.09;101876.53;5039785;28;20127;-30
2023/06/28 10:45:36;;;;;;;23.05;8.25;;;;;;;25.45;51.00;101870.59;5038190;28;20531;-30
2023/06/28 10:48:04;;;;;;;23.83;7.93;;;;;;;25.47;50.95;101872.13;5038038;28;20053;-31
2023/06/28 10:50:41;;;;;;;17.23;7.63;;;;;;;25.48;50.90;101868.38;5036185;28;20510;-33
2023/06/28 10:53:28;;;;;;;17.73;7.60;;;;;;;25.51;50.62;101865.31;5041548;28;20102;-30
2023/06/28 10:56:03;;;;;;;14.07;6.78;;;;;;;25.55;50.63;101868.53;5036931;28;20088;-30
2023/06/28 10:58:36;;;;;;;22.30;7.60;;;;;;;25.59;50.65;101873.41;5041617;28;20045;-30
2023/06/28 11:01:06;;;;;;;14.80;8.55;;;;;;;25.64;50.49;101872.03;5038095;28;20141;-30
2023/06/28 11:03:39;;;;;;;17.00;9.00;;;;;;;25.66;50.63;101867.28;5037547;28;20057;-30
2023/06/28 11:06:07;;;;;;;;;;;;;;;25.68;50.61;101862.50;5040724;28;20050;-33
2023/06/28 11:08:42;;;;;;;14.25;8.25;;;;;;;25.72;50.57;101861.97;5041996;28;19924;-31
2023/06/28 11:11:20;;;;;;;18.58;9.70;;;;;;;25.75;50.32;101866.19;5038880;28;20448;-30
2023/06/28 11:13:49;;;;;;;18.13;9.40;;;;;;;25.76;50.29;101859.72;5038131;28;20415;-29
2023/06/28 11:16:21;;;;;;;15.07;8.95;;;;;;;25.75;50.21;101856.16;5040591;28;20062;-30
2023/06/28 11:18:50;;;;;;;19.38;9.20;;;;;;;25.75;50.38;101861.59;5037905;28;20057;-31
2023/06/28 11:21:26;;;;;;;15.70;8.20;;;;;;;25.75;50.34;101866.19;5039250;28;20432;-31
2023/06/28 11:23:55;;;;;;;12.43;7.30;;;;;;;25.79;50.29;101860.25;5036775;28;20052;-30